Welcome to Northern Hawkes Bay. New Zealand.
PWS Header
      nz Flag



Hit Counter


W3C Valid W3C Valid logo


    Wairoa

Select any of the Stations below to visit their websites.










Historic Data from Weather Underground
Select the location of interest below. Wairoa is the default. Please have patience, this Data is slow to load in.
Northern Hawkes Bay Historical Data
Daily Summary for November 10, 2018 Units:  English    Metric   Both
« Previous Day
Next Day »
Daily Weekly Monthly Yearly Custom
  High: Low: Average:
Temperature: 67.1 °F 53.6 °F 58.5 °F
Dew Point: 59.4 °F 49.6 °F 53.2 °F
Humidity: 99% 69% 83%
Wind Speed: 15.9mph 0mph 6.3mph
Wind Gust: 24.4mph - -
Wind- - ESE
Pressure: 30.2 in 29.8 in -
Precipitation: 0.28 in    
Historical Graphs
 
 
Tabular Data for November 10, 2018
Time Temperature Dew Point Pressure Wind Wind Speed Wind Gust Humidity Rainfall Rate (Hourly) solar
00:04 67.1 °F 58.6 °F 29.8 in NNE 7.6 mph 14.5 mph 74% 0 in 0.00 W/m2
00:07 66.9 °F 58.5 °F 29.8 in NNE 8.3 mph 14.5 mph 74% 0 in 0.00 W/m2
00:14 66.9 °F 58.5 °F 29.9 in NNE 8.3 mph 16.8 mph 74% 0 in 0.00 W/m2
00:18 66.9 °F 58.5 °F 29.9 in North 5.4 mph 16.8 mph 74% 0 in 0.00 W/m2
00:23 66.7 °F 58.6 °F 29.9 in North 6.9 mph 16.8 mph 75% 0 in 0.00 W/m2
00:29 66.7 °F 58.6 °F 29.9 in NNE 6.9 mph 14.5 mph 75% 0 in 0.00 W/m2
00:33 66.7 °F 58.6 °F 29.9 in NNE 7.6 mph 14.5 mph 75% 0 in 0.00 W/m2
00:38 66.7 °F 58.6 °F 29.9 in NNE 8.3 mph 13.6 mph 75% 0 in 0.00 W/m2
00:42 66.7 °F 58.6 °F 29.9 in NNE 9.2 mph 14.5 mph 75% 0 in 0.00 W/m2
00:49 66.7 °F 58.6 °F 29.9 in NNE 9.8 mph 15.2 mph 75% 0 in 0.00 W/m2
00:54 66.7 °F 58.6 °F 29.9 in NNE 7.6 mph 15.2 mph 75% 0 in 0.00 W/m2
00:59 66.6 °F 58.5 °F 29.9 in NNE 7.6 mph 13.6 mph 75% 0 in 0.00 W/m2
01:04 66.4 °F 58.3 °F 29.9 in NE 9.8 mph 15.2 mph 75% 0 in 0.00 W/m2
01:09 66.4 °F 58.3 °F 29.9 in NE 8.3 mph 15.2 mph 75% 0 in 0.00 W/m2
01:14 66.4 °F 58.3 °F 29.8 in NE 3.8 mph 13.6 mph 75% 0 in 0.00 W/m2
01:18 66.2 °F 58.5 °F 29.8 in NNE 5.4 mph 13 mph 76% 0 in 0.00 W/m2
01:23 66.2 °F 58.5 °F 29.8 in NNE 5.4 mph 14.5 mph 76% 0 in 0.00 W/m2
01:29 66.2 °F 58.5 °F 29.8 in NNE 6 mph 14.5 mph 76% 0 in 0.00 W/m2
01:33 66.2 °F 58.5 °F 29.8 in NE 7.6 mph 15.9 mph 76% 0 in 0.00 W/m2
01:39 66.2 °F 58.5 °F 29.8 in NE 6 mph 15.9 mph 76% 0 in 0.00 W/m2
01:44 66.2 °F 58.5 °F 29.8 in NNE 7.6 mph 14.5 mph 76% 0 in 0.00 W/m2
01:45 66.2 °F 58.5 °F 29.8 in NNE 9.2 mph 14.5 mph 76% 0 in 0.00 W/m2
01:52 66.2 °F 58.5 °F 29.8 in NNE 6.9 mph 13 mph 76% 0 in 0.00 W/m2
01:59 66.2 °F 58.5 °F 29.8 in North 9.2 mph 15.2 mph 76% 0 in 0.00 W/m2
02:04 66.2 °F 58.5 °F 29.8 in NNE 7.6 mph 15.2 mph 76% 0 in 0.00 W/m2
02:09 66 °F 58.6 °F 29.8 in NNE 6 mph 13.6 mph 77% 0 in 0.00 W/m2
02:11 66 °F 58.6 °F 29.8 in North 6 mph 9.8 mph 77% 0 in 0.00 W/m2
02:19 65.8 °F 58.8 °F 29.8 in North 6 mph 9.8 mph 78% 0 in 0.00 W/m2
02:23 65.8 °F 58.8 °F 29.8 in North 6.9 mph 10.7 mph 78% 0 in 0.00 W/m2
02:28 65.8 °F 58.8 °F 29.8 in North 6 mph 10.7 mph 78% 0 in 0.00 W/m2
02:34 65.8 °F 58.8 °F 29.8 in North 5.4 mph 9.2 mph 78% 0 in 0.00 W/m2
02:39 65.8 °F 58.8 °F 29.8 in North 6 mph 9.8 mph 78% 0 in 0.00 W/m2
02:43 65.7 °F 59 °F 29.8 in North 3.1 mph 9.8 mph 79% 0 in 0.00 W/m2
02:49 65.3 °F 58.6 °F 29.8 in North 3.8 mph 8.3 mph 79% 0 in 0.00 W/m2
02:53 65.3 °F 58.6 °F 29.8 in North 3.8 mph 7.6 mph 79% 0 in 0.00 W/m2
02:59 65.3 °F 58.6 °F 29.8 in NNW 2.2 mph 7.6 mph 79% 0 in 0.00 W/m2
03:04 65.3 °F 59 °F 29.9 in NNW 3.1 mph 6 mph 80% 0 in 0.00 W/m2
03:05 65.3 °F 59 °F 29.9 in NNW 2.2 mph 6 mph 80% 0 in 0.00 W/m2
03:14 65.7 °F 59.4 °F 29.9 in North 3.1 mph 8.3 mph 80% 0 in 0.00 W/m2
03:19 65.3 °F 59 °F 29.8 in North 3.1 mph 8.3 mph 80% 0 in 0.00 W/m2
03:23 65.3 °F 59 °F 29.8 in North 2.2 mph 6 mph 80% 0 in 0.00 W/m2
03:29 65.3 °F 59 °F 29.9 in North 4.5 mph 6 mph 80% 0 in 0.00 W/m2
03:34 65.3 °F 59 °F 29.9 in North 4.5 mph 6 mph 80% 0 in 0.00 W/m2
03:39 65.3 °F 59 °F 29.9 in NNW 2.2 mph 6 mph 80% 0 in 0.00 W/m2
03:44 65.1 °F 59.2 °F 29.9 in Calm   5.4 mph 81% 0 in 0.00 W/m2
03:49 64.6 °F 58.6 °F 29.9 in SW 8.3 mph 17.4 mph 81% 0 in 0.00 W/m2
03:53 62.2 °F 57.7 °F 29.9 in SW 6.9 mph 17.4 mph 85% 0 in 0.00 W/m2
03:58 60.6 °F 57.9 °F 29.9 in SSW 12.1 mph 18.3 mph 91% 0 in 0.00 W/m2
04:04 59.2 °F 57.6 °F 29.9 in SW 12.1 mph 19.7 mph 94% 0.01 in 0.00 W/m2
04:09 58.5 °F 57.6 °F 29.9 in SW 14.5 mph 20.6 mph 97% 0.01 in 0.00 W/m2
04:13 58.1 °F 57.7 °F 29.9 in SW 11.4 mph 20.6 mph 99% 0.02 in 0.00 W/m2
04:17 57.7 °F 57.6 °F 29.9 in SW 11.4 mph 20.6 mph 99% 0.02 in 0.00 W/m2
04:21 57.2 °F 56.8 °F 29.9 in SW 12.1 mph 22.8 mph 99% 0.02 in 0.00 W/m2
04:29 56.7 °F 56.5 °F 29.9 in SSW 9.8 mph 19.7 mph 99% 0.04 in 0.00 W/m2
04:34 56.5 °F 56.1 °F 29.9 in SW 13 mph 23.5 mph 99% 0.06 in 0.00 W/m2
04:38 56.5 °F 56.1 °F 29.9 in SW 12.1 mph 23.5 mph 99% 0.06 in 0.00 W/m2
04:40 56.5 °F 56.1 °F 29.9 in SW 11.4 mph 23.5 mph 99% 0.06 in 0.00 W/m2
04:48 55.9 °F 55.8 °F 29.9 in SW 8.3 mph 22.1 mph 99% 0.08 in 0.00 W/m2
04:54 55.4 °F 55 °F 29.9 in SW 9.8 mph 24.4 mph 99% 0.08 in 0.00 W/m2
04:58 55.4 °F 55 °F 29.9 in SW 9.2 mph 24.4 mph 99% 0.09 in 0.00 W/m2
05:01 55 °F 54.1 °F 29.9 in SW 13 mph 24.4 mph 97% 0.09 in 0.00 W/m2
05:09 54.7 °F 54 °F 29.9 in WSW 15.9 mph 23.5 mph 97% 0.11 in 0.00 W/m2
05:14 54.3 °F 53.4 °F 29.9 in WSW 13 mph 23.5 mph 97% 0.11 in 0.00 W/m2
05:19 54.3 °F 53.4 °F 29.9 in WSW 13.6 mph 21.3 mph 97% 0.11 in 0.00 W/m2
05:24 54.3 °F 53.4 °F 29.9 in WSW 11.4 mph 22.1 mph 97% 0.11 in 0.00 W/m2
05:28 54.3 °F 53.4 °F 29.9 in WSW 8.3 mph 22.1 mph 97% 0.12 in 0.00 W/m2
05:44 54.3 °F 53.4 °F 30 in SW 12.1 mph 19.7 mph 97% 0.09 in 0.00 W/m2
05:48 54.1 °F 53.2 °F 30 in WSW 15.9 mph 20.6 mph 97% 0.09 in 0.00 W/m2
05:54 54 °F 53.1 °F 30 in SW 13.6 mph 23.5 mph 97% 0.11 in 0.00 W/m2
05:59 53.8 °F 53.1 °F 30 in SW 7.6 mph 23.5 mph 97% 0.09 in 0.00 W/m2
06:03 54 °F 53.1 °F 30 in SW 7.6 mph 17.4 mph 97% 0.09 in 0.00 W/m2
06:08 53.8 °F 53.1 °F 30 in SW 9.2 mph 15.9 mph 97% 0.09 in 0.00 W/m2
06:12 53.8 °F 53.1 °F 30 in WSW 11.4 mph 15.9 mph 97% 0.08 in 0.00 W/m2
06:17 53.6 °F 52.9 °F 30 in WSW 7.6 mph 18.3 mph 97% 0.08 in 0.00 W/m2
06:23 53.8 °F 53.1 °F 30 in WSW 11.4 mph 18.3 mph 97% 0.08 in 2.00 W/m2
06:29 53.8 °F 53.1 °F 30 in SSW 11.4 mph 16.8 mph 97% 0.08 in 2.00 W/m2
06:34 53.8 °F 53.1 °F 30 in West 10.7 mph 16.8 mph 97% 0.07 in 6.00 W/m2
06:39 53.8 °F 53.1 °F 30 in NNW 7.6 mph 16.8 mph 97% 0.06 in 9.00 W/m2
06:44 53.8 °F 53.1 °F 30 in WNW 8.3 mph 16.8 mph 97% 0.07 in 12.00 W/m2
06:54 53.8 °F 53.1 °F 30 in NNE 9.2 mph 19.7 mph 97% 0.06 in 16.00 W/m2
06:57 54 °F 53.1 °F 30 in North 9.8 mph 19.7 mph 97% 0.06 in 22.00 W/m2
07:04 53.8 °F 53.1 °F 30 in North 9.2 mph 13 mph 97% 0.05 in 18.00 W/m2
07:07 53.8 °F 53.1 °F 30 in NE 11.4 mph 14.5 mph 97% 0.05 in 19.00 W/m2
07:17 53.8 °F 53.1 °F 30 in NNW 9.8 mph 19.7 mph 97% 0.04 in 39.00 W/m2
07:24 54 °F 53.1 °F 30 in North 10.7 mph 19 mph 97% 0.04 in 22.00 W/m2
07:29 54 °F 53.1 °F 30 in NNE 9.2 mph 19 mph 97% 0.02 in 39.00 W/m2
07:33 54 °F 53.1 °F 30 in NE 6.9 mph 15.2 mph 97% 0.02 in 58.00 W/m2
07:38 54 °F 53.1 °F 30 in ESE 7.6 mph 15.2 mph 97% 0.02 in 56.00 W/m2
07:43 54 °F 53.1 °F 30 in NE 10.7 mph 16.8 mph 97% 0.01 in 68.00 W/m2
07:49 54.1 °F 53.2 °F 30 in NNE 6 mph 16.8 mph 97% 0.01 in 43.00 W/m2
07:54 54.3 °F 53.4 °F 30 in NE 7.6 mph 16.8 mph 97% 0.01 in 45.00 W/m2
07:59 54.3 °F 53.4 °F 30 in NE 12.1 mph 18.3 mph 97% 0.01 in 47.00 W/m2
08:04 54.3 °F 53.4 °F 30 in WSW 8.3 mph 18.3 mph 97% 0.01 in 75.00 W/m2
08:09 54.3 °F 53.4 °F 30 in NE 8.3 mph 18.3 mph 97% 0.01 in 88.00 W/m2
08:19 54.5 °F 53.8 °F 30 in NE 6 mph 16.8 mph 97% 0 in 55.00 W/m2
08:21 54.7 °F 54 °F 30 in NE 13.6 mph 16.8 mph 97% 0 in 48.00 W/m2
08:29 54.5 °F 53.8 °F 30 in ENE 11.4 mph 15.9 mph 97% 0 in 71.00 W/m2
08:34 54.5 °F 53.4 °F 30 in ENE 9.8 mph 15.2 mph 96% 0 in 82.00 W/m2
08:39 54.7 °F 53.6 °F 30 in East 8.3 mph 16.8 mph 96% 0 in 76.00 W/m2
08:40 54.9 °F 53.8 °F 30 in East 7.6 mph 16.8 mph 96% 0 in 81.00 W/m2
08:49 54.7 °F 53.2 °F 30.1 in NNE 9.8 mph 16.8 mph 95% 0 in 85.00 W/m2
08:54 54.3 °F 52.5 °F 30 in NNE 6.9 mph 15.9 mph 94% 0 in 94.00 W/m2
08:58 54.5 °F 52.5 °F 30.1 in South 6 mph 14.5 mph 93% 0 in 104.00 W/m2
09:04 55.2 °F 53.2 °F 30.1 in East 8.3 mph 16.8 mph 93% 0 in 68.00 W/m2
09:08 54.9 °F 53.2 °F 30.1 in NE 13 mph 19 mph 94% 0 in 72.00 W/m2
09:13 54.5 °F 53.8 °F 30.1 in NE 7.6 mph 19 mph 97% 0 in 108.00 W/m2
09:17 54.5 °F 53.8 °F 30.1 in NE 4.5 mph 19 mph 97% 0 in 119.00 W/m2
09:24 54.3 °F 53.4 °F 30.1 in NE 6.9 mph 13.6 mph 97% 0 in 144.00 W/m2
09:29 54.9 °F 53.8 °F 30.1 in ENE 7.6 mph 15.9 mph 96% 0 in 67.00 W/m2
09:34 54.3 °F 52.9 °F 30.1 in NE 11.4 mph 22.1 mph 95% 0.01 in 100.00 W/m2
09:38 54.1 °F 53.2 °F 30.1 in NE 8.3 mph 22.1 mph 97% 0.01 in 123.00 W/m2
09:44 54 °F 53.1 °F 30.1 in NE 9.2 mph 17.4 mph 97% 0.01 in 141.00 W/m2
09:46 54.1 °F 53.2 °F 30.1 in NE 4.5 mph 17.4 mph 97% 0.01 in 152.00 W/m2
09:53 54.3 °F 53.4 °F 30.1 in NE 6 mph 13.6 mph 97% 0.01 in 137.00 W/m2
09:56 54.5 °F 53.8 °F 30.1 in NNE 3.8 mph 13.6 mph 97% 0.01 in 182.00 W/m2
10:03 54.9 °F 53.4 °F 30.1 in WNW 6.9 mph 15.2 mph 95% 0.01 in 159.00 W/m2
10:07 55.4 °F 52.5 °F 30.1 in NW 9.2 mph 15.2 mph 90% 0.01 in 183.00 W/m2
10:12 56.3 °F 52.9 °F 30.1 in NNW 7.6 mph 13.6 mph 88% 0.01 in 180.00 W/m2
10:19 56.5 °F 52 °F 30.1 in WNW 8.3 mph 17.4 mph 85% 0.01 in 176.00 W/m2
10:24 56.5 °F 52 °F 30.1 in North 8.3 mph 17.4 mph 85% 0.01 in 169.00 W/m2
10:29 56.7 °F 50.9 °F 30.1 in South 8.3 mph 13.6 mph 81% 0 in 162.00 W/m2
10:34 57 °F 51.3 °F 30.1 in SW 7.6 mph 15.2 mph 81% 0 in 208.00 W/m2
10:36 57.2 °F 51.4 °F 30.1 in WNW 9.8 mph 15.2 mph 81% 0 in 222.00 W/m2
10:58 57.9 °F 51.1 °F 30.1 in WSW 6.9 mph 17.4 mph 78% 0 in 209.00 W/m2
11:04 57.9 °F 51.1 °F 30.1 in WSW 6.9 mph 13 mph 78% 0 in 201.00 W/m2
11:09 58.3 °F 51.8 °F 30.1 in West 6.9 mph 13 mph 79% 0 in 221.00 W/m2
11:12 58.3 °F 51.8 °F 30.1 in North 8.3 mph 13 mph 79% 0 in 236.00 W/m2
11:18 58.3 °F 52.2 °F 30.1 in SE 9.2 mph 14.5 mph 80% 0 in 192.00 W/m2
11:24 58.3 °F 52.2 °F 30.1 in South 11.4 mph 13.6 mph 80% 0 in 204.00 W/m2
11:27 58.1 °F 51.3 °F 30.1 in ENE 8.3 mph 13.6 mph 78% 0 in 207.00 W/m2
11:34 58.3 °F 51.8 °F 30.1 in North 10.7 mph 13.6 mph 79% 0 in 220.00 W/m2
11:39 58.3 °F 51.1 °F 30.1 in North 6.9 mph 15.2 mph 77% 0 in 192.00 W/m2
11:44 58.3 °F 51.8 °F 30.1 in North 9.8 mph 15.9 mph 79% 0 in 186.00 W/m2
11:47 57.9 °F 52.9 °F 30.1 in North 9.8 mph 17.4 mph 83% 0 in 217.00 W/m2
11:54 57.6 °F 53.1 °F 30.1 in NNE 9.2 mph 17.4 mph 85% 0 in 259.00 W/m2
11:59 57.7 °F 52.5 °F 30.1 in NE 9.8 mph 15.9 mph 83% 0 in 275.00 W/m2
12:04 58.3 °F 52.9 °F 30.1 in NNW 8.3 mph 15.9 mph 82% 0 in 189.00 W/m2
12:09 58.3 °F 52.2 °F 30.1 in North 9.2 mph 13 mph 80% 0 in 198.00 W/m2
12:13 58.1 °F 52.3 °F 30.1 in North 6.9 mph 15.9 mph 81% 0 in 246.00 W/m2
12:19 58.3 °F 53.2 °F 30.1 in NNE 8.3 mph 15.9 mph 83% 0 in 238.00 W/m2
12:24 57.7 °F 52.9 °F 30.1 in NNE 11.4 mph 16.8 mph 84% 0 in 215.00 W/m2
12:29 57 °F 52.2 °F 30.1 in NNE 9.8 mph 16.8 mph 84% 0 in 201.00 W/m2
12:34 57 °F 51.6 °F 30.1 in North 7.6 mph 15.9 mph 82% 0 in 210.00 W/m2
12:38 57.2 °F 51.4 °F 30.1 in NNE 3.1 mph 13.6 mph 81% 0 in 247.00 W/m2
12:42 58.1 °F 52 °F 30.1 in ENE 3.8 mph 12.1 mph 80% 0 in 262.00 W/m2
12:49 58.3 °F 51.1 °F 30.1 in ENE 6 mph 12.1 mph 77% 0 in 234.00 W/m2
13:14 57 °F 53.8 °F 30.1 in East 4.5 mph 10.7 mph 89% 0 in 232.00 W/m2
13:19 56.7 °F 53.2 °F 30.1 in ESE 6 mph 8.3 mph 88% 0 in 268.00 W/m2
13:24 56.8 °F 53.1 °F 30.1 in ESE 3.8 mph 8.3 mph 87% 0 in 295.00 W/m2
13:28 57.7 °F 53.2 °F 30.1 in SE 4.5 mph 8.3 mph 85% 0 in 281.00 W/m2
13:31 58.3 °F 52.9 °F 30.1 in SE 8.3 mph 13.6 mph 82% 0 in 283.00 W/m2
13:39 59 °F 52.2 °F 30.1 in ENE 6 mph 13.6 mph 78% 0 in 374.00 W/m2
13:44 59.7 °F 52.9 °F 30.1 in ENE 4.5 mph 12.1 mph 78% 0 in 374.00 W/m2
13:47 60.4 °F 53.6 °F 30.1 in ENE 6 mph 9.2 mph 78% 0 in 329.00 W/m2
13:54 59.7 °F 52.2 °F 30.1 in ENE 8.3 mph 15.9 mph 76% 0 in 157.00 W/m2
13:58 58.3 °F 51.1 °F 30.1 in ESE 6 mph 15.9 mph 77% 0 in 142.00 W/m2
14:02 58.1 °F 50.2 °F 30.1 in ESE 6 mph 15.9 mph 75% 0 in 143.00 W/m2
14:09 58.3 °F 50.7 °F 30.1 in ENE 3.8 mph 9.8 mph 76% 0 in 174.00 W/m2
14:14 58.3 °F 51.1 °F 30.1 in NE 9.2 mph 11.4 mph 77% 0 in 182.00 W/m2
14:19 58.3 °F 51.8 °F 30.1 in NE 7.6 mph 11.4 mph 79% 0 in 219.00 W/m2
14:24 58.3 °F 51.1 °F 30.1 in ENE 8.3 mph 11.4 mph 77% 0.01 in 183.00 W/m2
14:27 58.3 °F 50.7 °F 30.1 in NNE 6 mph 11.4 mph 76% 0.01 in 180.00 W/m2
14:31 58.8 °F 51.6 °F 30.1 in NNE 5.4 mph 11.4 mph 77% 0.01 in 185.00 W/m2
14:39 58.8 °F 51.3 °F 30.1 in ENE 6 mph 9.8 mph 76% 0.01 in 131.00 W/m2
14:43 58.3 °F 51.1 °F 30.1 in NE 9.2 mph 15.9 mph 77% 0.01 in 143.00 W/m2
14:48 57.9 °F 51.1 °F 30.1 in NNE 6 mph 15.9 mph 78% 0.01 in 141.00 W/m2
14:54 57.6 °F 50.4 °F 30.1 in West 6.9 mph 13.6 mph 77% 0.01 in 151.00 W/m2
14:59 57.7 °F 50.9 °F 30.1 in SW 6.9 mph 12.1 mph 78% 0.01 in 157.00 W/m2
15:04 57.6 °F 50.2 °F 30.1 in ENE 4.5 mph 12.1 mph 76% 0.01 in 164.00 W/m2
15:09 57.9 °F 50.4 °F 30.1 in North 3.1 mph 11.4 mph 76% 0.01 in 212.00 W/m2
15:14 58.8 °F 51.3 °F 30.1 in WNW 5.4 mph 7.6 mph 76% 0.01 in 224.00 W/m2
15:18 59 °F 50.4 °F 30.1 in NNW 5.4 mph 7.6 mph 73% 0.01 in 222.00 W/m2
15:24 59.2 °F 50.5 °F 30.1 in North 4.5 mph 7.6 mph 73% 0 in 184.00 W/m2
15:29 59.4 °F 51.1 °F 30.1 in NW 3.8 mph 7.6 mph 74% 0 in 122.00 W/m2
15:34 58.8 °F 51.6 °F 30.1 in West 6.9 mph 9.8 mph 77% 0 in 129.00 W/m2
15:39 58.1 °F 51.3 °F 30.1 in SW 3.8 mph 9.8 mph 78% 0 in 124.00 W/m2
15:44 57.9 °F 51.1 °F 30.1 in SW 3.1 mph 9.8 mph 78% 0 in 133.00 W/m2
15:48 58.1 °F 52.3 °F 30.1 in Calm   6.9 mph 81% 0 in 152.00 W/m2
15:54 58.3 °F 52.5 °F 30.1 in SSW 7.6 mph 10.7 mph 81% 0 in 193.00 W/m2
15:59 58.3 °F 51.4 °F 30.1 in South 9.2 mph 13.6 mph 78% 0 in 186.00 W/m2
16:04 58.8 °F 52.3 °F 30.1 in East 6 mph 13.6 mph 79% 0 in 160.00 W/m2
16:09 58.3 °F 51.4 °F 30.1 in ENE 6 mph 11.4 mph 78% 0 in 161.00 W/m2
16:14 58.8 °F 52 °F 30.1 in East 3.8 mph 11.4 mph 78% 0 in 196.00 W/m2
16:19 59 °F 51.8 °F 30.1 in East 7.6 mph 11.4 mph 77% 0 in 182.00 W/m2
16:24 59.2 °F 52.3 °F 30.1 in NE 6.9 mph 12.1 mph 78% 0 in 201.00 W/m2
16:29 59.4 °F 52.2 °F 30.1 in ENE 6 mph 12.1 mph 77% 0 in 231.00 W/m2
16:34 59.5 °F 52.3 °F 30.1 in ENE 9.8 mph 13 mph 77% 0 in 222.00 W/m2
16:38 59.5 °F 52 °F 30.1 in ENE 9.2 mph 13 mph 76% 0 in 365.00 W/m2
16:44 60.4 °F 52.5 °F 30.1 in East 6 mph 12.1 mph 75% 0 in 466.00 W/m2
16:48 61.7 °F 53.1 °F 30.1 in SE 6.9 mph 13 mph 73% 0 in 361.00 W/m2
16:54 61.3 °F 51.1 °F 30.1 in ESE 7.6 mph 13 mph 69% 0 in 223.00 W/m2
16:59 60.3 °F 51.6 °F 30.1 in NE 6.9 mph 13 mph 73% 0 in 202.00 W/m2
17:04 59.9 °F 51.3 °F 30.1 in NE 7.6 mph 12.1 mph 73% 0 in 193.00 W/m2
17:07 59.5 °F 50.9 °F 30.1 in NE 4.5 mph 12.1 mph 73% 0 in 165.00 W/m2
17:14 59.4 °F 51.1 °F 30.1 in NNE 3.8 mph 10.7 mph 74% 0 in 153.00 W/m2
17:16 59.4 °F 51.1 °F 30.1 in NNE 8.3 mph 10.7 mph 74% 0 in 147.00 W/m2
17:24 59.4 °F 51.4 °F 30.1 in East 6 mph 10.7 mph 75% 0 in 167.00 W/m2
17:28 59.5 °F 51.6 °F 30.1 in East 2.2 mph 9.8 mph 75% 0 in 196.00 W/m2
17:34 59.7 °F 51.1 °F 30.1 in NE 3.8 mph 10.7 mph 73% 0 in 167.00 W/m2
17:38 59.7 °F 51.1 °F 30.1 in WNW 6.9 mph 10.7 mph 73% 0 in 122.00 W/m2
17:44 59.4 °F 51.1 °F 30.1 in SSW 6 mph 12.1 mph 74% 0 in 87.00 W/m2
17:49 58.8 °F 50.9 °F 30.1 in NE 6 mph 12.1 mph 75% 0 in 79.00 W/m2
17:52 58.5 °F 50.2 °F 30.1 in NNE 3.8 mph 10.7 mph 74% 0 in 85.00 W/m2
17:58 58.8 °F 50.9 °F 30.1 in ENE 3.8 mph 9.2 mph 75% 0 in 104.00 W/m2
18:04 58.5 °F 50.2 °F 30.1 in ESE 2.2 mph 9.8 mph 74% 0 in 105.00 W/m2
18:09 58.8 °F 50.2 °F 30.1 in ESE 3.1 mph 10.7 mph 73% 0 in 94.00 W/m2
18:14 58.8 °F 50.2 °F 30.1 in East 5.4 mph 10.7 mph 73% 0 in 89.00 W/m2
18:34 58.3 °F 50 °F 30.2 in ENE 6 mph 9.8 mph 74% 0 in 55.00 W/m2
18:39 58.3 °F 50 °F 30.2 in ENE 3.8 mph 9.2 mph 74% 0 in 55.00 W/m2
18:44 58.3 °F 50 °F 30.2 in ENE 2.2 mph 9.2 mph 74% 0 in 54.00 W/m2
18:48 58.1 °F 49.8 °F 30.2 in ENE 6.9 mph 9.2 mph 74% 0 in 48.00 W/m2
18:54 57.9 °F 49.6 °F 30.2 in NE 6 mph 10.7 mph 74% 0 in 40.00 W/m2
18:59 57.9 °F 50.2 °F 30.2 in NE 5.4 mph 10.7 mph 75% 0 in 32.00 W/m2
19:04 57.7 °F 49.8 °F 30.2 in ENE 2.2 mph 8.3 mph 75% 0 in 25.00 W/m2
19:09 57.7 °F 49.8 °F 30.2 in ESE 1.6 mph 8.3 mph 75% 0 in 18.00 W/m2
19:14 57.7 °F 50.2 °F 30.2 in East 3.8 mph 7.6 mph 76% 0 in 21.00 W/m2
19:17 57.6 °F 50.2 °F 30.2 in ENE 3.8 mph 7.6 mph 76% 0 in 22.00 W/m2
19:24 57.6 °F 49.6 °F 30.2 in East 3.1 mph 7.6 mph 75% 0 in 17.00 W/m2
19:29 57.6 °F 50.2 °F 30.2 in East 3.8 mph 6 mph 76% 0 in 11.00 W/m2
19:34 57.4 °F 49.8 °F 30.2 in East 3.1 mph 6 mph 76% 0 in 6.00 W/m2
19:39 57.4 °F 50.2 °F 30.2 in East 4.5 mph 6 mph 77% 0 in 4.00 W/m2
19:43 57.2 °F 50.2 °F 30.2 in ENE 3.1 mph 6.9 mph 77% 0 in 2.00 W/m2
19:49 57.2 °F 49.6 °F 30.2 in ENE 2.2 mph 6.9 mph 76% 0 in 0.00 W/m2
19:54 57 °F 50.2 °F 30.2 in ENE 2.2 mph 6 mph 78% 0 in 0.00 W/m2
19:59 57 °F 50.2 °F 30.2 in NNE 3.1 mph 6 mph 78% 0 in 0.00 W/m2
20:04 57 °F 50.2 °F 30.2 in East 1.6 mph 8.3 mph 78% 0 in 0.00 W/m2
20:09 57 °F 50.2 °F 30.2 in Calm   8.3 mph 78% 0 in 0.00 W/m2
20:13 57 °F 50.5 °F 30.2 in ESE 3.8 mph 6 mph 79% 0 in 0.00 W/m2
20:19 57 °F 50.9 °F 30.2 in ESE 1.6 mph 6 mph 80% 0 in 0.00 W/m2
20:24 56.8 °F 50.4 °F 30.2 in East 3.1 mph 5.4 mph 79% 0 in 0.00 W/m2
20:28 56.8 °F 50.2 °F 30.2 in East 1.6 mph 5.4 mph 78% 0 in 0.00 W/m2
20:33 56.8 °F 50.2 °F 30.2 in ESE 1.6 mph 5.4 mph 78% 0 in 0.00 W/m2
20:39 56.8 °F 50.2 °F 30.2 in ESE 3.1 mph 4.5 mph 78% 0 in 0.00 W/m2
20:44 56.8 °F 50.2 °F 30.2 in ESE 3.1 mph 5.4 mph 78% 0 in 0.00 W/m2
20:47 56.8 °F 50.2 °F 30.2 in East 3.8 mph 5.4 mph 78% 0 in 0.00 W/m2
20:54 56.8 °F 50.4 °F 30.2 in ENE 1.6 mph 6 mph 79% 0 in 0.00 W/m2
20:59 57 °F 50.9 °F 30.2 in Calm   4.5 mph 80% 0 in 0.00 W/m2
21:04 56.8 °F 50.7 °F 30.2 in East 3.1 mph 4.5 mph 80% 0 in 0.00 W/m2
21:09 56.8 °F 50.4 °F 30.2 in ESE 0.7 mph 5.4 mph 79% 0 in 0.00 W/m2
21:14 56.8 °F 50.4 °F 30.2 in East 1.6 mph 5.4 mph 79% 0 in 0.00 W/m2
21:19 56.8 °F 50.4 °F 30.2 in ENE 2.2 mph 5.4 mph 79% 0 in 0.00 W/m2
21:29 56.8 °F 50.7 °F 30.2 in ESE 2.2 mph 3.8 mph 80% 0 in 0.00 W/m2
21:34 56.8 °F 50.7 °F 30.2 in East 1.6 mph 5.4 mph 80% 0 in 0.00 W/m2
21:39 57 °F 50.9 °F 30.2 in East 3.1 mph 5.4 mph 80% 0 in 0.00 W/m2
21:43 56.8 °F 50.7 °F 30.2 in ENE 1.6 mph 4.5 mph 80% 0 in 0.00 W/m2
21:49 56.8 °F 50.7 °F 30.2 in ESE 2.2 mph 4.5 mph 80% 0 in 0.00 W/m2
21:54 56.8 °F 50.7 °F 30.2 in ESE 2.2 mph 5.4 mph 80% 0 in 0.00 W/m2
21:59 56.8 °F 50.4 °F 30.2 in ESE 2.2 mph 5.4 mph 79% 0 in 0.00 W/m2
22:04 56.8 °F 50.4 °F 30.2 in ESE 0.7 mph 4.5 mph 79% 0 in 0.00 W/m2
22:09 57 °F 50.5 °F 30.2 in ESE 2.2 mph 4.5 mph 79% 0 in 0.00 W/m2
22:14 57 °F 50.9 °F 30.2 in ESE 3.1 mph 5.4 mph 80% 0 in 0.00 W/m2
22:16 57 °F 51.3 °F 30.2 in ESE 3.1 mph 6.9 mph 81% 0 in 0.00 W/m2
22:24 56.8 °F 51.4 °F 30.2 in ESE 3.1 mph 6.9 mph 82% 0 in 0.00 W/m2
22:27 56.8 °F 51.6 °F 30.2 in ESE 3.1 mph 6 mph 83% 0 in 0.00 W/m2
22:34 56.5 °F 51.4 °F 30.2 in East 3.1 mph 7.6 mph 83% 0 in 0.00 W/m2
22:37 56.5 °F 51.4 °F 30.2 in ENE 3.1 mph 7.6 mph 83% 0 in 0.00 W/m2
22:41 56.3 °F 51.3 °F 30.2 in ENE 1.6 mph 6 mph 83% 0 in 0.00 W/m2
22:48 56.3 °F 51.3 °F 30.2 in ESE 2.2 mph 6 mph 83% 0 in 0.00 W/m2
22:54 56.3 °F 51.4 °F 30.2 in ESE 3.1 mph 6 mph 84% 0 in 0.00 W/m2
22:59 56.3 °F 51.4 °F 30.2 in ESE 0.7 mph 6 mph 84% 0 in 0.00 W/m2
23:04 56.3 °F 51.4 °F 30.2 in ESE 1.6 mph 4.5 mph 84% 0 in 0.00 W/m2
23:07 56.3 °F 51.4 °F 30.2 in ESE 1.6 mph 4.5 mph 84% 0 in 0.00 W/m2
23:13 56.3 °F 51.4 °F 30.2 in Calm   4.5 mph 84% 0 in 0.00 W/m2
23:19 56.1 °F 51.6 °F 30.2 in East 4.5 mph 6 mph 85% 0 in 0.00 W/m2
23:24 55.9 °F 51.4 °F 30.2 in East 2.2 mph 8.3 mph 85% 0 in 0.00 W/m2
23:28 55.8 °F 51.6 °F 30.2 in East 2.2 mph 8.3 mph 86% 0 in 0.00 W/m2
23:31 55.6 °F 51.4 °F 30.2 in ENE 1.6 mph 6.9 mph 86% 0 in 0.00 W/m2
23:39 55.2 °F 51.4 °F 30.2 in NE 3.8 mph 6.9 mph 87% 0 in 0.00 W/m2
23:43 55 °F 51.6 °F 30.2 in NE 2.2 mph 6 mph 88% 0 in 0.00 W/m2
23:48 55 °F 52 °F 30.2 in NE 3.1 mph 6 mph 89% 0 in 0.00 W/m2
23:54 54.9 °F 51.6 °F 30.2 in NE 2.2 mph 4.5 mph 89% 0 in 0.00 W/m2
23:58 54.9 °F 51.6 °F 30.2 in NE 2.2 mph 4.5 mph 89% 0 in 0.00 W/m2
Northern Hawkes Bay. New Zealand Historic Data
Compliments of Weather Underground - 2 mb